sensor_id;sensor_type;location;lat;lon;timestamp;pressure;altitude;pressure_sealevel;temperature;humidity
13456;BME280;6800;50.940;6.940;2023-01-25T00:03:10;102884.59;;;12.85;40.37
13456;BME280;6800;50.940;6.940;2023-01-25T00:07:11;102875.50;;;12.97;39.62
13456;BME280;6800;50.940;6.940;2023-01-25T00:11:13;102870.34;;;13.21;39.35
13456;BME280;6800;50.940;6.940;2023-01-25T00:15:17;102873.78;;;12.96;39.58
13456;BME280;6800;50.940;6.940;2023-01-25T00:19:18;102874.75;;;12.93;39.27
13456;BME280;6800;50.940;6.940;2023-01-25T00:23:20;102869.50;;;12.93;39.55
13456;BME280;6800;50.940;6.940;2023-01-25T00:27:21;102871.88;;;13.01;39.47
13456;BME280;6800;50.940;6.940;2023-01-25T00:31:43;102866.94;;;13.19;39.26
13456;BME280;6800;50.940;6.940;2023-01-25T00:35:48;102858.13;;;13.22;38.86
13456;BME280;6800;50.940;6.940;2023-01-25T00:39:50;102861.16;;;12.53;40.50
13456;BME280;6800;50.940;6.940;2023-01-25T00:43:51;102851.66;;;12.77;39.92
13456;BME280;6800;50.940;6.940;2023-01-25T00:47:54;102848.53;;;12.66;40.11
13456;BME280;6800;50.940;6.940;2023-01-25T00:51:57;102843.47;;;12.87;40.12
13456;BME280;6800;50.940;6.940;2023-01-25T00:55:58;102834.22;;;13.03;39.44
13456;BME280;6800;50.940;6.940;2023-01-25T00:59:59;102837.69;;;13.05;39.47
13456;BME280;6800;50.940;6.940;2023-01-25T01:04:01;102832.84;;;13.19;39.62
13456;BME280;6800;50.940;6.940;2023-01-25T01:08:05;102833.50;;;12.98;39.84
13456;BME280;6800;50.940;6.940;2023-01-25T01:12:06;102826.69;;;12.37;40.82
13456;BME280;6800;50.940;6.940;2023-01-25T01:16:09;102833.31;;;12.77;40.35
13456;BME280;6800;50.940;6.940;2023-01-25T01:20:12;102830.97;;;12.40;40.89
13456;BME280;6800;50.940;6.940;2023-01-25T01:24:13;102829.19;;;12.70;40.47
13456;BME280;6800;50.940;6.940;2023-01-25T01:28:15;102828.06;;;12.78;40.41
13456;BME280;6800;50.940;6.940;2023-01-25T01:32:16;102833.31;;;13.06;39.65
13456;BME280;6800;50.940;6.940;2023-01-25T01:36:20;102830.88;;;12.43;40.58
13456;BME280;6800;50.940;6.940;2023-01-25T01:40:22;102837.84;;;12.44;41.02
13456;BME280;6800;50.940;6.940;2023-01-25T01:44:48;102833.16;;;12.53;41.24
13456;BME280;6800;50.940;6.940;2023-01-25T01:48:58;102838.47;;;12.80;40.61
13456;BME280;6800;50.940;6.940;2023-01-25T01:53:01;102830.94;;;12.69;40.46
13456;BME280;6800;50.940;6.940;2023-01-25T02:01:09;102834.44;;;12.70;40.33
13456;BME280;6800;50.940;6.940;2023-01-25T02:05:19;102831.28;;;12.86;40.57
13456;BME280;6800;50.940;6.940;2023-01-25T02:09:24;102832.19;;;10.96;44.55
13456;BME280;6800;50.940;6.940;2023-01-25T02:13:26;102836.53;;;11.68;42.94
13456;BME280;6800;50.940;6.940;2023-01-25T02:17:31;102831.56;;;12.20;41.63
13456;BME280;6800;50.940;6.940;2023-01-25T02:21:38;102822.84;;;12.20;42.66
13456;BME280;6800;50.940;6.940;2023-01-25T02:25:41;102816.69;;;12.50;41.84
13456;BME280;6800;50.940;6.940;2023-01-25T02:29:43;102821.47;;;12.65;41.14
13456;BME280;6800;50.940;6.940;2023-01-25T02:33:45;102811.53;;;12.75;41.17
13456;BME280;6800;50.940;6.940;2023-01-25T02:37:46;102812.56;;;12.71;40.58
13456;BME280;6800;50.940;6.940;2023-01-25T02:41:47;102817.09;;;12.07;42.22
13456;BME280;6800;50.940;6.940;2023-01-25T02:45:51;102811.47;;;12.50;41.35
13456;BME280;6800;50.940;6.940;2023-01-25T02:49:55;102800.13;;;12.77;40.81
13456;BME280;6800;50.940;6.940;2023-01-25T02:53:57;102800.38;;;12.96;40.50
13456;BME280;6800;50.940;6.940;2023-01-25T02:57:58;102794.31;;;12.94;40.57
13456;BME280;6800;50.940;6.940;2023-01-25T03:01:59;102794.66;;;12.28;41.87
13456;BME280;6800;50.940;6.940;2023-01-25T03:06:01;102805.81;;;12.64;40.84
13456;BME280;6800;50.940;6.940;2023-01-25T03:10:03;102804.81;;;12.38;41.82
13456;BME280;6800;50.940;6.940;2023-01-25T03:14:04;102803.75;;;12.16;42.39
13456;BME280;6800;50.940;6.940;2023-01-25T03:18:05;102792.78;;;12.88;40.58
13456;BME280;6800;50.940;6.940;2023-01-25T03:22:07;102796.47;;;12.83;40.98
13456;BME280;6800;50.940;6.940;2023-01-25T03:26:16;102794.66;;;12.83;40.74
13456;BME280;6800;50.940;6.940;2023-01-25T03:30:18;102802.94;;;12.71;40.75
13456;BME280;6800;50.940;6.940;2023-01-25T03:34:19;102798.03;;;12.61;41.06
13456;BME280;6800;50.940;6.940;2023-01-25T03:38:21;102801.25;;;12.69;41.16
13456;BME280;6800;50.940;6.940;2023-01-25T03:42:23;102801.06;;;12.19;41.45
13456;BME280;6800;50.940;6.940;2023-01-25T03:46:24;102802.19;;;12.09;42.70
13456;BME280;6800;50.940;6.940;2023-01-25T03:50:26;102803.06;;;12.10;42.30
13456;BME280;6800;50.940;6.940;2023-01-25T03:54:27;102793.56;;;11.77;42.99
13456;BME280;6800;50.940;6.940;2023-01-25T03:58:29;102786.59;;;12.63;41.73
13456;BME280;6800;50.940;6.940;2023-01-25T04:02:31;102785.72;;;12.35;41.49
13456;BME280;6800;50.940;6.940;2023-01-25T04:06:32;102787.66;;;12.30;41.76
13456;BME280;6800;50.940;6.940;2023-01-25T04:10:34;102776.53;;;12.22;41.92
13456;BME280;6800;50.940;6.940;2023-01-25T04:14:35;102770.41;;;12.50;41.09
13456;BME280;6800;50.940;6.940;2023-01-25T04:18:45;102757.38;;;12.75;41.00
13456;BME280;6800;50.940;6.940;2023-01-25T04:22:46;102764.47;;;11.55;43.06
13456;BME280;6800;50.940;6.940;2023-01-25T04:26:47;102755.13;;;10.42;46.31
13456;BME280;6800;50.940;6.940;2023-01-25T04:30:49;102753.19;;;11.21;44.52
13456;BME280;6800;50.940;6.940;2023-01-25T04:34:50;102741.72;;;12.18;42.43
13456;BME280;6800;50.940;6.940;2023-01-25T04:38:52;102735.56;;;12.48;41.06
13456;BME280;6800;50.940;6.940;2023-01-25T04:42:53;102725.44;;;12.36;42.00
13456;BME280;6800;50.940;6.940;2023-01-25T04:46:54;102729.31;;;12.52;41.75
13456;BME280;6800;50.940;6.940;2023-01-25T04:50:56;102729.84;;;12.64;41.84
13456;BME280;6800;50.940;6.940;2023-01-25T04:54:57;102727.47;;;11.99;42.55
13456;BME280;6800;50.940;6.940;2023-01-25T04:58:58;102725.28;;;12.42;41.61
13456;BME280;6800;50.940;6.940;2023-01-25T05:03:00;102723.53;;;12.69;41.50
13456;BME280;6800;50.940;6.940;2023-01-25T05:07:01;102722.66;;;12.42;41.91
13456;BME280;6800;50.940;6.940;2023-01-25T05:11:03;102722.44;;;12.75;41.49
13456;BME280;6800;50.940;6.940;2023-01-25T05:15:05;102711.38;;;12.93;41.05
13456;BME280;6800;50.940;6.940;2023-01-25T05:19:08;102711.22;;;12.97;41.31
13456;BME280;6800;50.940;6.940;2023-01-25T05:23:10;102715.00;;;12.89;41.53
13456;BME280;6800;50.940;6.940;2023-01-25T05:27:14;102708.47;;;13.00;40.71
13456;BME280;6800;50.940;6.940;2023-01-25T05:31:15;102700.78;;;12.96;40.77
13456;BME280;6800;50.940;6.940;2023-01-25T05:35:17;102702.69;;;12.38;41.94
13456;BME280;6800;50.940;6.940;2023-01-25T05:39:19;102692.88;;;12.45;41.75
13456;BME280;6800;50.940;6.940;2023-01-25T05:43:20;102701.63;;;12.72;41.01
13456;BME280;6800;50.940;6.940;2023-01-25T05:47:23;102697.06;;;11.95;43.38
13456;BME280;6800;50.940;6.940;2023-01-25T05:51:25;102700.72;;;12.19;42.78
13456;BME280;6800;50.940;6.940;2023-01-25T05:55:26;102699.09;;;11.86;43.17
13456;BME280;6800;50.940;6.940;2023-01-25T05:59:27;102695.13;;;12.29;42.13
13456;BME280;6800;50.940;6.940;2023-01-25T06:03:29;102697.53;;;11.80;43.13
13456;BME280;6800;50.940;6.940;2023-01-25T06:07:34;102692.59;;;12.54;42.30
13456;BME280;6800;50.940;6.940;2023-01-25T06:11:42;102699.25;;;12.09;42.71
13456;BME280;6800;50.940;6.940;2023-01-25T06:15:54;102693.16;;;12.64;41.45
13456;BME280;6800;50.940;6.940;2023-01-25T06:19:56;102695.34;;;12.49;41.56
13456;BME280;6800;50.940;6.940;2023-01-25T06:23:57;102687.53;;;12.48;41.60
13456;BME280;6800;50.940;6.940;2023-01-25T06:27:59;102681.06;;;12.60;41.31
13456;BME280;6800;50.940;6.940;2023-01-25T06:32:00;102680.94;;;12.63;41.68
13456;BME280;6800;50.940;6.940;2023-01-25T06:36:03;102673.38;;;12.27;42.20
13456;BME280;6800;50.940;6.940;2023-01-25T06:40:06;102671.19;;;12.68;41.72
13456;BME280;6800;50.940;6.940;2023-01-25T06:44:07;102680.75;;;12.69;41.67
13456;BME280;6800;50.940;6.940;2023-01-25T06:48:09;102679.78;;;12.45;41.91
13456;BME280;6800;50.940;6.940;2023-01-25T06:52:13;102677.34;;;12.39;42.08
13456;BME280;6800;50.940;6.940;2023-01-25T06:56:18;102679.34;;;11.75;44.34
13456;BME280;6800;50.940;6.940;2023-01-25T07:00:21;102686.13;;;12.10;43.72
13456;BME280;6800;50.940;6.940;2023-01-25T07:04:23;102687.25;;;12.57;42.50
13456;BME280;6800;50.940;6.940;2023-01-25T07:08:24;102687.13;;;12.86;41.71
13456;BME280;6800;50.940;6.940;2023-01-25T07:12:29;102687.28;;;12.82;41.80
13456;BME280;6800;50.940;6.940;2023-01-25T07:16:31;102694.03;;;12.89;41.29
13456;BME280;6800;50.940;6.940;2023-01-25T07:20:36;102676.44;;;12.92;41.31
13456;BME280;6800;50.940;6.940;2023-01-25T07:24:38;102681.53;;;12.97;41.26
13456;BME280;6800;50.940;6.940;2023-01-25T07:28:39;102682.09;;;12.80;41.57
13456;BME280;6800;50.940;6.940;2023-01-25T07:32:41;102677.88;;;13.01;40.81
13456;BME280;6800;50.940;6.940;2023-01-25T07:36:42;102678.84;;;12.98;41.36
13456;BME280;6800;50.940;6.940;2023-01-25T07:40:50;102679.63;;;13.02;40.95
13456;BME280;6800;50.940;6.940;2023-01-25T07:44:52;102678.84;;;12.98;41.05
13456;BME280;6800;50.940;6.940;2023-01-25T07:48:53;102675.69;;;12.89;40.76
13456;BME280;6800;50.940;6.940;2023-01-25T07:52:56;102679.28;;;12.86;40.83
13456;BME280;6800;50.940;6.940;2023-01-25T07:56:58;102688.81;;;12.89;40.83
13456;BME280;6800;50.940;6.940;2023-01-25T08:01:06;102679.56;;;13.28;40.17
13456;BME280;6800;50.940;6.940;2023-01-25T08:05:08;102675.88;;;13.09;40.76
13456;BME280;6800;50.940;6.940;2023-01-25T08:09:15;102664.69;;;13.04;40.13
13456;BME280;6800;50.940;6.940;2023-01-25T08:13:19;102664.94;;;12.96;40.90
13456;BME280;6800;50.940;6.940;2023-01-25T08:17:21;102665.38;;;12.58;40.90
13456;BME280;6800;50.940;6.940;2023-01-25T08:21:23;102668.94;;;12.82;41.12
13456;BME280;6800;50.940;6.940;2023-01-25T08:25:25;102678.84;;;12.74;40.86
13456;BME280;6800;50.940;6.940;2023-01-25T08:29:27;102671.13;;;12.94;41.31
13456;BME280;6800;50.940;6.940;2023-01-25T08:33:28;102659.63;;;12.98;40.61
13456;BME280;6800;50.940;6.940;2023-01-25T08:37:29;102663.13;;;12.98;40.90
13456;BME280;6800;50.940;6.940;2023-01-25T08:41:32;102654.28;;;13.01;40.92
13456;BME280;6800;50.940;6.940;2023-01-25T08:45:34;102654.66;;;13.16;40.68
13456;BME280;6800;50.940;6.940;2023-01-25T08:49:37;102653.81;;;12.90;41.48
13456;BME280;6800;50.940;6.940;2023-01-25T08:53:38;102643.47;;;13.11;40.44
13456;BME280;6800;50.940;6.940;2023-01-25T08:57:40;102642.44;;;13.15;40.31
13456;BME280;6800;50.940;6.940;2023-01-25T09:01:41;102653.41;;;13.02;40.87
13456;BME280;6800;50.940;6.940;2023-01-25T09:05:42;102647.84;;;13.11;40.69
13456;BME280;6800;50.940;6.940;2023-01-25T09:09:44;102639.19;;;13.32;41.04
13456;BME280;6800;50.940;6.940;2023-01-25T09:13:46;102645.19;;;13.12;39.86
13456;BME280;6800;50.940;6.940;2023-01-25T09:17:53;102644.78;;;12.74;41.65
13456;BME280;6800;50.940;6.940;2023-01-25T09:21:56;102642.72;;;13.08;40.60
13456;BME280;6800;50.940;6.940;2023-01-25T09:25:59;102646.00;;;12.88;40.64
13456;BME280;6800;50.940;6.940;2023-01-25T09:30:01;102633.38;;;13.24;40.54
13456;BME280;6800;50.940;6.940;2023-01-25T09:34:04;102631.16;;;13.37;40.15
13456;BME280;6800;50.940;6.940;2023-01-25T09:38:06;102619.72;;;13.16;40.35
13456;BME280;6800;50.940;6.940;2023-01-25T09:42:39;102621.41;;;13.17;40.96
13456;BME280;6800;50.940;6.940;2023-01-25T09:46:48;102616.38;;;13.11;40.78
13456;BME280;6800;50.940;6.940;2023-01-25T09:54:52;102603.59;;;13.26;40.35
13456;BME280;6800;50.940;6.940;2023-01-25T09:58:59;102605.19;;;13.30;40.83
13456;BME280;6800;50.940;6.940;2023-01-25T10:03:10;102609.00;;;13.45;40.27
13456;BME280;6800;50.940;6.940;2023-01-25T10:11:46;102599.25;;;12.51;41.68
13456;BME280;6800;50.940;6.940;2023-01-25T10:16:18;102592.78;;;13.34;40.31
13456;BME280;6800;50.940;6.940;2023-01-25T10:20:47;102593.03;;;13.28;40.19
13456;BME280;6800;50.940;6.940;2023-01-25T10:29:34;102577.03;;;13.36;40.33
13456;BME280;6800;50.940;6.940;2023-01-25T10:33:39;102569.09;;;12.89;41.00
13456;BME280;6800;50.940;6.940;2023-01-25T10:37:44;102560.00;;;13.46;40.10
13456;BME280;6800;50.940;6.940;2023-01-25T10:41:51;102564.00;;;12.35;42.60
13456;BME280;6800;50.940;6.940;2023-01-25T10:45:55;102553.91;;;12.25;41.47
13456;BME280;6800;50.940;6.940;2023-01-25T10:49:58;102546.75;;;12.79;41.62
13456;BME280;6800;50.940;6.940;2023-01-25T10:54:02;102555.66;;;11.41;44.17
13456;BME280;6800;50.940;6.940;2023-01-25T10:58:03;102544.94;;;12.57;42.40
13456;BME280;6800;50.940;6.940;2023-01-25T11:06:37;102529.09;;;12.35;42.22
13456;BME280;6800;50.940;6.940;2023-01-25T11:10:41;102530.38;;;12.73;41.48
13456;BME280;6800;50.940;6.940;2023-01-25T11:14:44;102526.69;;;12.04;42.63
13456;BME280;6800;50.940;6.940;2023-01-25T11:18:51;102523.72;;;13.12;41.50
13456;BME280;6800;50.940;6.940;2023-01-25T11:22:55;102512.94;;;13.19;40.99
13456;BME280;6800;50.940;6.940;2023-01-25T11:27:19;102520.03;;;13.39;40.38
13456;BME280;6800;50.940;6.940;2023-01-25T11:31:21;102512.28;;;13.14;40.88
13456;BME280;6800;50.940;6.940;2023-01-25T11:35:26;102507.38;;;13.50;40.08
13456;BME280;6800;50.940;6.940;2023-01-25T11:39:51;102496.78;;;13.30;40.51
13456;BME280;6800;50.940;6.940;2023-01-25T11:52:32;102464.47;;;13.51;40.39
13456;BME280;6800;50.940;6.940;2023-01-25T11:56:59;102453.69;;;13.37;39.92
13456;BME280;6800;50.940;6.940;2023-01-25T12:01:26;102442.94;;;12.98;40.90
13456;BME280;6800;50.940;6.940;2023-01-25T12:05:44;102430.53;;;13.47;40.61
13456;BME280;6800;50.940;6.940;2023-01-25T12:14:32;102409.97;;;13.58;40.15
13456;BME280;6800;50.940;6.940;2023-01-25T12:31:44;102368.19;;;13.53;40.30
13456;BME280;6800;50.940;6.940;2023-01-25T12:35:56;102355.50;;;13.22;40.09
13456;BME280;6800;50.940;6.940;2023-01-25T12:40:10;102343.94;;;13.48;39.49
13456;BME280;6800;50.940;6.940;2023-01-25T12:44:34;102337.78;;;13.69;39.75
13456;BME280;6800;50.940;6.940;2023-01-25T12:48:42;102329.16;;;13.66;39.80
13456;BME280;6800;50.940;6.940;2023-01-25T12:52:53;102318.19;;;13.76;39.60
13456;BME280;6800;50.940;6.940;2023-01-25T12:57:09;102311.16;;;13.78;39.05
13456;BME280;6800;50.940;6.940;2023-01-25T13:01:28;102305.50;;;13.47;40.12
13456;BME280;6800;50.940;6.940;2023-01-25T13:05:55;102302.13;;;13.64;39.62
13456;BME280;6800;50.940;6.940;2023-01-25T13:10:04;102291.63;;;13.64;39.66
13456;BME280;6800;50.940;6.940;2023-01-25T13:35:51;102235.53;;;13.48;39.99
13456;BME280;6800;50.940;6.940;2023-01-25T13:44:22;102224.75;;;13.74;39.28
13456;BME280;6800;50.940;6.940;2023-01-25T13:48:30;102227.75;;;12.63;41.38
13456;BME280;6800;50.940;6.940;2023-01-25T13:52:32;102227.66;;;12.66;41.30
13456;BME280;6800;50.940;6.940;2023-01-25T13:56:34;102219.91;;;13.04;40.42
13456;BME280;6800;50.940;6.940;2023-01-25T14:00:36;102218.03;;;12.86;41.02
13456;BME280;6800;50.940;6.940;2023-01-25T14:04:38;102220.00;;;13.23;40.61
13456;BME280;6800;50.940;6.940;2023-01-25T14:08:41;102216.50;;;13.43;40.64
13456;BME280;6800;50.940;6.940;2023-01-25T14:12:45;102212.78;;;13.48;40.44
13456;BME280;6800;50.940;6.940;2023-01-25T14:17:15;102207.53;;;13.28;40.03
13456;BME280;6800;50.940;6.940;2023-01-25T14:21:19;102204.88;;;12.46;41.75
13456;BME280;6800;50.940;6.940;2023-01-25T14:25:21;102204.97;;;12.43;42.46
13456;BME280;6800;50.940;6.940;2023-01-25T14:29:24;102196.22;;;12.86;41.57
13456;BME280;6800;50.940;6.940;2023-01-25T14:33:33;102182.53;;;13.21;41.36
13456;BME280;6800;50.940;6.940;2023-01-25T14:37:44;102184.72;;;13.30;40.63
13456;BME280;6800;50.940;6.940;2023-01-25T14:41:45;102187.28;;;13.32;41.62
13456;BME280;6800;50.940;6.940;2023-01-25T14:46:29;102180.34;;;13.30;41.16
13456;BME280;6800;50.940;6.940;2023-01-25T14:50:33;102180.59;;;13.24;40.69
13456;BME280;6800;50.940;6.940;2023-01-25T14:54:42;102179.53;;;13.49;40.76
13456;BME280;6800;50.940;6.940;2023-01-25T14:58:45;102177.25;;;13.41;41.46
13456;BME280;6800;50.940;6.940;2023-01-25T15:02:59;102173.25;;;13.71;40.48
13456;BME280;6800;50.940;6.940;2023-01-25T15:07:01;102173.16;;;13.34;41.06
13456;BME280;6800;50.940;6.940;2023-01-25T15:15:58;102165.06;;;13.59;41.26
13456;BME280;6800;50.940;6.940;2023-01-25T15:20:00;102164.13;;;13.41;40.92
13456;BME280;6800;50.940;6.940;2023-01-25T15:24:05;102159.03;;;13.38;40.81
13456;BME280;6800;50.940;6.940;2023-01-25T15:28:13;102150.34;;;13.36;41.00
13456;BME280;6800;50.940;6.940;2023-01-25T15:32:20;102146.31;;;13.29;40.75
13456;BME280;6800;50.940;6.940;2023-01-25T15:36:21;102133.00;;;13.34;41.47
13456;BME280;6800;50.940;6.940;2023-01-25T15:40:23;102130.78;;;13.04;41.68
13456;BME280;6800;50.940;6.940;2023-01-25T15:44:24;102123.63;;;13.28;41.26
13456;BME280;6800;50.940;6.940;2023-01-25T15:48:32;102115.47;;;13.34;40.91
13456;BME280;6800;50.940;6.940;2023-01-25T15:52:33;102110.97;;;13.38;41.18
13456;BME280;6800;50.940;6.940;2023-01-25T15:56:35;102113.59;;;13.38;40.32
13456;BME280;6800;50.940;6.940;2023-01-25T16:00:37;102114.22;;;13.43;39.97
13456;BME280;6800;50.940;6.940;2023-01-25T16:04:39;102114.50;;;13.37;40.84
13456;BME280;6800;50.940;6.940;2023-01-25T16:08:40;102099.19;;;13.46;40.94
13456;BME280;6800;50.940;6.940;2023-01-25T16:12:41;102102.25;;;13.37;41.42
13456;BME280;6800;50.940;6.940;2023-01-25T16:16:45;102102.38;;;13.34;41.09
13456;BME280;6800;50.940;6.940;2023-01-25T16:20:47;102100.97;;;13.27;41.13
13456;BME280;6800;50.940;6.940;2023-01-25T16:24:48;102094.94;;;13.25;41.86
13456;BME280;6800;50.940;6.940;2023-01-25T16:28:50;102099.94;;;12.91;41.71
13456;BME280;6800;50.940;6.940;2023-01-25T16:32:52;102098.44;;;13.05;41.37
13456;BME280;6800;50.940;6.940;2023-01-25T16:36:54;102095.75;;;13.07;41.31
13456;BME280;6800;50.940;6.940;2023-01-25T16:40:57;102086.41;;;13.20;41.73
13456;BME280;6800;50.940;6.940;2023-01-25T16:44:58;102097.47;;;13.08;41.41
13456;BME280;6800;50.940;6.940;2023-01-25T16:49:00;102099.16;;;13.09;41.25
13456;BME280;6800;50.940;6.940;2023-01-25T16:53:04;102102.69;;;12.68;41.66
13456;BME280;6800;50.940;6.940;2023-01-25T16:57:06;102084.84;;;13.16;41.05
13456;BME280;6800;50.940;6.940;2023-01-25T17:01:22;102085.34;;;13.24;40.68
13456;BME280;6800;50.940;6.940;2023-01-25T17:05:27;102086.91;;;13.09;41.28
13456;BME280;6800;50.940;6.940;2023-01-25T17:09:34;102084.16;;;13.12;41.17
13456;BME280;6800;50.940;6.940;2023-01-25T17:13:35;102073.31;;;13.00;41.54
13456;BME280;6800;50.940;6.940;2023-01-25T17:17:37;102065.53;;;13.18;41.20
13456;BME280;6800;50.940;6.940;2023-01-25T17:21:38;102073.59;;;13.14;40.78
13456;BME280;6800;50.940;6.940;2023-01-25T17:25:39;102080.50;;;13.15;41.36
13456;BME280;6800;50.940;6.940;2023-01-25T17:29:41;102078.78;;;12.75;41.11
13456;BME280;6800;50.940;6.940;2023-01-25T17:33:43;102083.03;;;12.78;41.28
13456;BME280;6800;50.940;6.940;2023-01-25T17:37:45;102083.88;;;12.58;41.72
13456;BME280;6800;50.940;6.940;2023-01-25T17:41:48;102085.25;;;12.67;41.15
13456;BME280;6800;50.940;6.940;2023-01-25T17:45:49;102069.53;;;12.67;41.75
13456;BME280;6800;50.940;6.940;2023-01-25T17:49:51;102049.16;;;12.93;41.20
13456;BME280;6800;50.940;6.940;2023-01-25T17:53:52;102059.06;;;12.87;40.64
13456;BME280;6800;50.940;6.940;2023-01-25T17:57:55;102058.91;;;11.88;42.31
13456;BME280;6800;50.940;6.940;2023-01-25T18:01:56;102058.56;;;12.79;41.12
13456;BME280;6800;50.940;6.940;2023-01-25T18:05:58;102047.34;;;12.75;41.54
13456;BME280;6800;50.940;6.940;2023-01-25T18:09:59;102060.66;;;12.50;42.30
13456;BME280;6800;50.940;6.940;2023-01-25T18:14:04;102058.34;;;12.63;41.30
13456;BME280;6800;50.940;6.940;2023-01-25T18:18:08;102057.75;;;12.57;40.88
13456;BME280;6800;50.940;6.940;2023-01-25T18:22:09;102058.41;;;12.41;41.03
13456;BME280;6800;50.940;6.940;2023-01-25T18:26:16;102062.47;;;12.48;41.29
13456;BME280;6800;50.940;6.940;2023-01-25T18:30:42;102058.06;;;12.29;41.85
13456;BME280;6800;50.940;6.940;2023-01-25T18:34:44;102055.53;;;12.27;41.92
13456;BME280;6800;50.940;6.940;2023-01-25T18:38:48;102046.38;;;12.37;41.45
13456;BME280;6800;50.940;6.940;2023-01-25T18:42:49;102051.34;;;12.43;41.33
13456;BME280;6800;50.940;6.940;2023-01-25T18:46:52;102051.72;;;12.14;41.48
13456;BME280;6800;50.940;6.940;2023-01-25T18:50:54;102040.09;;;12.21;41.20
13456;BME280;6800;50.940;6.940;2023-01-25T18:54:56;102047.44;;;12.12;41.64
13456;BME280;6800;50.940;6.940;2023-01-25T18:58:57;102033.91;;;12.22;42.27
13456;BME280;6800;50.940;6.940;2023-01-25T19:02:59;102016.63;;;12.18;41.95
13456;BME280;6800;50.940;6.940;2023-01-25T19:07:01;102021.19;;;12.13;41.84
13456;BME280;6800;50.940;6.940;2023-01-25T19:11:04;102010.63;;;12.16;42.09
13456;BME280;6800;50.940;6.940;2023-01-25T19:15:07;102003.66;;;12.15;41.84
13456;BME280;6800;50.940;6.940;2023-01-25T19:19:09;102003.34;;;11.59;42.90
13456;BME280;6800;50.940;6.940;2023-01-25T19:23:10;101990.81;;;12.11;43.16
13456;BME280;6800;50.940;6.940;2023-01-25T19:27:12;101998.38;;;12.37;41.94
13456;BME280;6800;50.940;6.940;2023-01-25T19:31:21;101984.97;;;12.04;42.45
13456;BME280;6800;50.940;6.940;2023-01-25T19:35:23;101973.56;;;12.05;42.89
13456;BME280;6800;50.940;6.940;2023-01-25T19:39:25;101964.38;;;11.75;42.36
13456;BME280;6800;50.940;6.940;2023-01-25T19:43:26;101962.78;;;11.71;43.29
13456;BME280;6800;50.940;6.940;2023-01-25T19:47:27;101951.47;;;11.49;44.06
13456;BME280;6800;50.940;6.940;2023-01-25T19:51:37;101943.22;;;11.81;43.21
13456;BME280;6800;50.940;6.940;2023-01-25T19:55:39;101928.31;;;11.61;42.88
13456;BME280;6800;50.940;6.940;2023-01-25T19:59:41;101913.59;;;11.59;43.51
13456;BME280;6800;50.940;6.940;2023-01-25T20:03:42;101915.53;;;11.75;42.27
13456;BME280;6800;50.940;6.940;2023-01-25T20:07:44;101919.56;;;11.19;42.88
13456;BME280;6800;50.940;6.940;2023-01-25T20:11:45;101914.34;;;11.41;42.93
13456;BME280;6800;50.940;6.940;2023-01-25T20:15:47;101901.94;;;11.03;43.77
13456;BME280;6800;50.940;6.940;2023-01-25T20:19:49;101905.41;;;10.80;43.69
13456;BME280;6800;50.940;6.940;2023-01-25T20:23:52;101900.97;;;11.48;43.04
13456;BME280;6800;50.940;6.940;2023-01-25T20:27:56;101897.28;;;11.94;42.80
13456;BME280;6800;50.940;6.940;2023-01-25T20:31:57;101901.84;;;11.69;42.94
13456;BME280;6800;50.940;6.940;2023-01-25T20:36:04;101888.63;;;11.94;42.27
13456;BME280;6800;50.940;6.940;2023-01-25T20:40:06;101891.00;;;11.98;42.46
13456;BME280;6800;50.940;6.940;2023-01-25T20:44:08;101896.97;;;11.82;42.14
13456;BME280;6800;50.940;6.940;2023-01-25T20:48:11;101893.06;;;11.92;41.99
13456;BME280;6800;50.940;6.940;2023-01-25T20:52:12;101891.41;;;11.89;41.38
13456;BME280;6800;50.940;6.940;2023-01-25T20:56:15;101892.19;;;11.49;41.59
13456;BME280;6800;50.940;6.940;2023-01-25T21:00:17;101881.78;;;11.28;42.31
13456;BME280;6800;50.940;6.940;2023-01-25T21:04:18;101886.94;;;11.49;41.87
13456;BME280;6800;50.940;6.940;2023-01-25T21:08:20;101881.97;;;11.43;42.31
13456;BME280;6800;50.940;6.940;2023-01-25T21:12:22;101874.75;;;11.28;42.71
13456;BME280;6800;50.940;6.940;2023-01-25T21:16:23;101864.94;;;11.55;41.75
13456;BME280;6800;50.940;6.940;2023-01-25T21:20:24;101855.91;;;11.42;42.22
13456;BME280;6800;50.940;6.940;2023-01-25T21:24:26;101856.19;;;11.56;42.25
13456;BME280;6800;50.940;6.940;2023-01-25T21:28:28;101839.00;;;11.50;42.34
13456;BME280;6800;50.940;6.940;2023-01-25T21:32:30;101831.75;;;11.77;41.08
13456;BME280;6800;50.940;6.940;2023-01-25T21:36:31;101846.47;;;11.80;41.40
13456;BME280;6800;50.940;6.940;2023-01-25T21:40:32;101833.41;;;10.96;42.84
13456;BME280;6800;50.940;6.940;2023-01-25T21:44:34;101835.22;;;11.57;41.84
13456;BME280;6800;50.940;6.940;2023-01-25T21:48:56;101840.50;;;11.56;41.79
13456;BME280;6800;50.940;6.940;2023-01-25T21:53:16;101835.34;;;11.54;41.42
13456;BME280;6800;50.940;6.940;2023-01-25T21:57:17;101839.44;;;11.40;41.50
13456;BME280;6800;50.940;6.940;2023-01-25T22:01:20;101846.81;;;11.30;42.05
13456;BME280;6800;50.940;6.940;2023-01-25T22:05:21;101852.53;;;11.18;42.33
13456;BME280;6800;50.940;6.940;2023-01-25T22:09:23;101846.84;;;11.50;41.72
13456;BME280;6800;50.940;6.940;2023-01-25T22:13:24;101852.34;;;11.23;42.23
13456;BME280;6800;50.940;6.940;2023-01-25T22:17:26;101860.81;;;10.63;43.77
13456;BME280;6800;50.940;6.940;2023-01-25T22:21:30;101866.03;;;11.29;42.13
13456;BME280;6800;50.940;6.940;2023-01-25T22:25:32;101853.91;;;11.27;42.11
13456;BME280;6800;50.940;6.940;2023-01-25T22:29:33;101848.59;;;11.30;42.07
13456;BME280;6800;50.940;6.940;2023-01-25T22:33:35;101853.63;;;11.34;41.76
13456;BME280;6800;50.940;6.940;2023-01-25T22:37:36;101843.97;;;11.36;42.38
13456;BME280;6800;50.940;6.940;2023-01-25T22:41:38;101851.44;;;10.80;42.17
13456;BME280;6800;50.940;6.940;2023-01-25T22:45:47;101857.22;;;10.88;41.45
13456;BME280;6800;50.940;6.940;2023-01-25T22:49:49;101855.41;;;11.12;42.01
13456;BME280;6800;50.940;6.940;2023-01-25T22:53:51;101853.09;;;10.83;42.29